Tiempo atmosférico en la estación meteorológica de Marbella, Málaga (2 m.)



Fecha
DESCASC
Temp. máxima en grados centígrados (hora)
DESCASC
Temp. mínima en grados centígrados (hora)
DESCASC
Temp. media en grados centígrados
DESCASC
Racha de viento máxima en m/sg (hora)
DESCASC
Velocidad máxima media en intervalos de 10 minutos(hora)
DESCASC
Precipitaciones diarias en mm
DESCASC
Precipitaciones de 00:00 a 06:00 en mm
DESCASC
Precipitaciones de 06:00 a 12:00 en mm
DESCASC
Precipitaciones de 12:00 a 18:00 en mm
DESCASC
Precipitaciones de 18:00 a 24:00 en mm
DESCASC
13-10-2019 23.5 (17:50) 19.3 (08:10) 21.4 7.22 (13:50) 6.39 (13:50) 0 0 0 0 0
12-10-2019 24.9 (13:20) 21 (23:40) 22.9 5.28 (16:30) 4.72 (16:40) 0 0 0 0 0
11-10-2019 24.4 (17:00) 21.1 (08:10) 22.8 6.94 (02:40) 5.28 (13:40) 0 0 0 0 0
10-10-2019 24 (13:10) 19.3 (00:00) 21.6 10.83 (11:40) 7.22 (11:40) 0 0 0 0 0
09-10-2019 24.8 (17:20) 19.5 (00:00) 22.1 6.67 (11:10) 6.11 (11:30) 0 0 0 0 0
08-10-2019 24.6 (18:40) 20.1 (00:00) 22.4 12.22 (11:50) 8.61 (11:50) 0 0 0 0 0
07-10-2019 24.9 (11:00) 17.5 (00:00) 21.2 5.83 (22:20) 5 (22:20) 0 0 0 0 0
06-10-2019 21.8 (18:30) 17.9 (00:00) 19.8 6.11 (07:00) 5.28 (19:50) 0 0 0 0 0
05-10-2019 23.6 (14:10) 17.3 (00:00) 20.4 5.28 (19:10) 4.72 (19:10) 0 0 0 0 0
04-10-2019 23.9 (13:40) 17.9 (00:00) 20.9 6.67 (05:20) 5 (05:30) 0 0 0 0 0
03-10-2019 23.4 (19:00) 16.7 (00:00) 20.1 5.83 (16:50) 4.17 (16:50) 0 0 0 0 0
02-10-2019 24.9 (17:20) 18.6 (00:00) 21.8 12.5 (18:40) 8.61 (18:40) 0 0 0 0 0
01-10-2019 25.9 (15:20) 18.4 (00:00) 22.1 9.17 (20:20) 7.5 (20:20) 0 0 0 0 0
30-09-2019 23.7 (13:10) 19.3 (00:00) 21.5 5.56 (19:40) 5 (18:00) 0 0 0 0 0
29-09-2019 25.5 (16:30) 18.8 (00:00) 22.1 4.17 (13:50) 3.89 (13:40) 0 0 0 0 0
28-09-2019 24 (12:30) 19.1 (00:00) 21.6 6.11 (03:10) 4.72 (03:10) 0 0 0 0 0
27-09-2019 25.3 (17:50) 19.6 (00:00) 22.4 6.11 (20:20) 5.56 (20:20) 0 0 0 0 0
26-09-2019 25.6 (00:10) 20.3 (00:00) 22.9 11.11 (12:00) 9.17 (12:00) 0 0 0 0 0
25-09-2019 26.3 (18:40) 20.2 (00:00) 23.3 6.39 (23:59) 5 (16:50) 0 0 0 0 0
24-09-2019 23.9 (19:20) 18 (00:00) 20.9 6.94 (19:20) 6.39 (19:20) 0 0 0 0 0
23-09-2019 24.3 (17:00) 19.5 (00:00) 21.9 7.78 (05:00) 4.17 (05:00) 0 0 0 0 0
22-09-2019 24.5 (18:00) 20.4 (00:00) 22.4 11.94 (14:50) 10 (15:00) 0 0 0 0 0
21-09-2019 24.4 (16:10) 21.5 (00:00) 22.9 5.28 (12:20) 4.44 (12:30) 0 0 0 0 0
20-09-2019 24.7 (12:40) 22.4 (00:00) 23.6 9.44 (11:50) 8.06 (12:40) 0 0 0 0 0
19-09-2019 24.8 (13:30) 20.7 (00:00) 22.8 5.83 (04:20) 4.72 (16:30) 0 0 0 0 0
18-09-2019 24.3 (17:40) 21.2 (00:00) 22.8 5.56 (19:20) 5 (19:20) 0 0 0 0 0
17-09-2019 26.9 (18:50) 21.5 (00:00) 24.2 8.33 (15:10) 7.22 (15:10) 0 0 0 0 0
16-09-2019 25.1 (19:40) 21.1 (00:00) 23.1 5.28 (10:00) 4.72 (07:10) 0 0 0 0 0
15-09-2019 25.4 (09:50) 22.5 (00:00) 23.9 6.94 (05:00) 5.83 (06:00) 0.2 0 0.2 0 0

Gráficas

Temp. máximas Temp. mínimas Temp. medias Precipitaciones Rachas de viento máximas Velocidades máximas media en intervalos de 10 minutos

Datos horarios

Fecha y hora oficial Temperatura (ºC) Velocidad del viento (km/h) Dirección del viento Racha (km/h) Dirección de racha Precipitación (mm) Presión (hPa) Tendencia (hPa) Humedad (%)
2019-10-14 23:00:00 20.2 37 Sudoeste 46 Sudoeste 0 -- -- 76
2019-10-14 22:00:00 20.5 36 Sudoeste 44 Sudoeste 0 -- -- 73
2019-10-14 21:00:00 20.8 38 Sudoeste 46 Oeste 0 -- -- 70
2019-10-14 20:00:00 21.4 40 Sudoeste 58 Sudoeste 0 -- -- 66
2019-10-14 19:00:00 21.9 48 Sudoeste 59 Sudoeste 0 -- -- 67
2019-10-14 18:00:00 22.3 40 Sudoeste 50 Sudoeste 0 -- -- 68
2019-10-14 17:00:00 22.3 37 Sudoeste 48 Sudoeste 0 -- -- 72
2019-10-14 16:00:00 21.9 32 Sudoeste 40 Sudoeste 0 -- -- 76
2019-10-14 15:00:00 21.2 33 Sudoeste 41 Sudoeste 0 -- -- 81
2019-10-14 14:00:00 20.7 27 Sudoeste 38 Sudoeste 0 -- -- 85
2019-10-14 13:00:00 20.5 31 Sudoeste 42 Sudoeste 0 -- -- 86
2019-10-14 12:00:00 21.1 35 Sudoeste 41 Sudoeste 0 -- -- 83
2019-10-14 11:00:00 21.4 32 Sudoeste 40 Sudoeste 0 -- -- 83
2019-10-14 10:00:00 21.8 32 Oeste 48 Sudoeste 0 -- -- 76
2019-10-14 09:00:00 21.5 38 Sudoeste 51 Sudoeste 0 -- -- 80
2019-10-14 08:00:00 21 22 Sudoeste 30 Sudoeste 0 -- -- 88
2019-10-14 07:00:00 21 20 Oeste 28 Oeste 0 -- -- 90
2019-10-14 06:00:00 21.3 21 Sudoeste 32 Sudoeste 0 -- -- 90
2019-10-14 05:00:00 21.2 4 Sur 8 Sur 0 -- -- 86
2019-10-14 04:00:00 21.4 5 Nordeste 13 Nordeste 0 -- -- 84
2019-10-14 03:00:00 21.2 6 Nordeste 9 Nordeste 0 -- -- 84
2019-10-14 02:00:00 21 7 Nordeste 10 Nordeste 0 -- -- 84
2019-10-14 01:00:00 20.9 4 Noroeste 8 Oeste 0 -- -- 85
2019-10-14 00:00:00 21.2 3 Sudoeste 10 Nordeste 0 -- -- 87
2019-10-13 23:00:00 20.9 5 Nordeste 9 Norte 0 -- -- 87
2019-10-13 22:00:00 21.3 5 Nordeste 9 Este 0 -- -- 86
2019-10-13 21:00:00 21.7 8 Este 12 Este 0 -- -- 86
2019-10-13 20:00:00 22.1 8 Este 20 Este 0 -- -- 83
2019-10-13 19:00:00 23 13 Este 17 Este 0 -- -- 80
2019-10-13 18:00:00 23.4 12 Este 23 Este 0 -- -- 79
2019-10-13 17:00:00 22.5 19 Este 24 Este 0 -- -- 84
2019-10-13 16:00:00 22.6 21 Este 25 Este 0 -- -- 82
2019-10-13 15:00:00 23.3 21 Este 25 Este 0 -- -- 79
2019-10-13 14:00:00 23.2 21 Este 26 Este 0 -- -- 75
2019-10-13 13:00:00 23.3 18 Este 23 Este 0 -- -- 76
2019-10-13 12:00:00 23 10 Este 13 Este 0 -- -- 82
2019-10-13 11:00:00 21.5 9 Este 12 Este 0 -- -- 87
2019-10-13 10:00:00 20.8 0 Calma 4 Oeste 0 -- -- 88
2019-10-13 09:00:00 20 0 Calma 0 Calma 0 -- -- 90
2019-10-13 08:00:00 19.4 0 Calma 4 Nordeste 0 -- -- 90
2019-10-13 07:00:00 19.4 3 Nordeste 4 Nordeste 0 -- -- 90
2019-10-13 06:00:00 19.5 0 Calma 5 Noroeste 0 -- -- 89
2019-10-13 05:00:00 19.8 4 Noroeste 6 Noroeste 0 -- -- 89
2019-10-13 04:00:00 19.9 4 Noroeste 5 Noroeste 0 -- -- 88
2019-10-13 03:00:00 20.2 4 Noroeste 5 Noroeste 0 -- -- 87
2019-10-13 02:00:00 20.4 3 Noroeste 4 Norte 0 -- -- 86
2019-10-13 01:00:00 20.7 3 Norte 5 Norte 0 -- -- 86
2019-10-13 00:00:00 21 3 Noroeste 6 Noroeste 0 -- -- 84
2019-10-12 23:00:00 21.2 4 Noroeste 6 Noroeste 0 -- -- 83
2019-10-12 22:00:00 21.6 2 Noroeste 4 Noroeste 0 -- -- 81
2019-10-12 21:00:00 22.1 0 Calma 4 Nordeste 0 -- -- 79
2019-10-12 20:00:00 22.7 0 Calma 7 Nordeste 0 -- -- 78
2019-10-12 19:00:00 23.7 7 Este 12 Este 0 -- -- 77
2019-10-12 18:00:00 24 10 Este 15 Este 0 -- -- 77
2019-10-12 17:00:00 24.1 14 Este 19 Este 0 -- -- 77
2019-10-12 16:00:00 24.2 14 Este 15 Este 0 -- -- 78
2019-10-12 15:00:00 24.1 11 Sudeste 13 Sudeste 0 -- -- 77
2019-10-12 14:00:00 24.8 7 Sudeste 9 Sudeste 0 -- -- 72
2019-10-12 13:00:00 23.5 7 Este 14 Este 0 -- -- 80
2019-10-12 12:00:00 23.6 13 Este 14 Este 0 -- -- 81
2019-10-12 11:00:00 22.6 6 Nordeste 12 Este 0 -- -- 81
2019-10-12 10:00:00 22.3 0 Calma 4 Norte 0 -- -- 83
2019-10-12 09:00:00 21.6 2 Norte 8 Norte 0 -- -- 81
2019-10-12 08:00:00 21.7 0 Calma 9 Norte 0 -- -- 81
2019-10-12 07:00:00 21.5 5 Noroeste 9 Noroeste 0 -- -- 80
2019-10-12 06:00:00 22 7 Nordeste 15 Nordeste 0 -- -- 78
2019-10-12 05:00:00 22 9 Nordeste 13 Norte 0 -- -- 78
2019-10-12 04:00:00 22.1 9 Norte 15 Norte 0 -- -- 77
2019-10-12 03:00:00 22 8 Norte 11 Norte 0 -- -- 79
2019-10-12 02:00:00 21.6 6 Norte 10 Nordeste 0 -- -- 81
2019-10-12 01:00:00 21.6 5 Norte 10 Norte 0 -- -- 80
2019-10-12 00:00:00 21.8 8 Norte 11 Norte 0 -- -- 80
2019-10-11 23:00:00 21.6 4 Norte 9 Norte 0 -- -- 80
2019-10-11 22:00:00 21.8 6 Nordeste 11 Nordeste 0 -- -- 80
2019-10-11 21:00:00 22.2 6 Nordeste 10 Nordeste 0 -- -- 79
2019-10-11 20:00:00 22.4 6 Este 15 Este 0 -- -- 81
2019-10-11 19:00:00 22.8 15 Este 19 Este 0 -- -- 75
2019-10-11 18:00:00 23.1 9 Este 14 Este 0 -- -- 75
2019-10-11 17:00:00 24.4 11 Este 14 Este 0 -- -- 71
2019-10-11 16:00:00 23.6 12 Este 15 Este 0 -- -- 73
2019-10-11 15:00:00 23.4 11 Este 22 Este 0 -- -- 73
2019-10-11 14:00:00 23.8 17 Este 25 Este 0 -- -- 71
2019-10-11 13:00:00 24 13 Este 21 Nordeste 0 -- -- 70
2019-10-11 12:00:00 23.5 10 Nordeste 18 Nordeste 0 -- -- 73
2019-10-11 11:00:00 23.4 9 Nordeste 16 Este 0 -- -- 73
2019-10-11 10:00:00 22.3 7 Nordeste 12 Norte 0 -- -- 77
2019-10-11 09:00:00 21.5 7 Norte 10 Nordeste 0 -- -- 80
2019-10-11 08:00:00 21.3 5 Norte 9 Nordeste 0 -- -- 81
2019-10-11 07:00:00 21.5 4 Norte 14 Nordeste 0 -- -- 80
2019-10-11 06:00:00 21.8 12 Nordeste 20 Nordeste 0 -- -- 79
2019-10-11 05:00:00 22 15 Nordeste 23 Nordeste 0 -- -- 80
2019-10-11 04:00:00 22 14 Nordeste 22 Nordeste 0 -- -- 80
2019-10-11 03:00:00 22 15 Nordeste 25 Nordeste 0 -- -- 80
2019-10-11 02:00:00 21.9 12 Nordeste 21 Norte 0 -- -- 80
2019-10-11 01:00:00 22 13 Nordeste 17 Nordeste 0 -- -- 80
2019-10-11 00:00:00 21.9 9 Norte 17 Nordeste 0 -- -- 79
2019-10-10 23:00:00 21.9 9 Norte 13 Norte 0 -- -- 79
2019-10-10 22:00:00 22.1 9 Nordeste 18 Nordeste 0 -- -- 80
2019-10-10 21:00:00 22.3 15 Nordeste 22 Nordeste 0 -- -- 79
2019-10-10 20:00:00 22.7 16 Nordeste 31 Nordeste 0 -- -- 78
2019-10-10 19:00:00 23.6 21 Nordeste 33 Nordeste 0 -- -- 74
2019-10-10 18:00:00 23.7 24 Este 34 Este 0 -- -- 73
2019-10-10 17:00:00 23.9 23 Nordeste 33 Este 0 -- -- 72
2019-10-10 16:00:00 23.8 25 Este 35 Nordeste 0 -- -- 72
2019-10-10 15:00:00 23.8 22 Este 32 Este 0 -- -- 73
2019-10-10 14:00:00 23.7 24 Este 36 Nordeste 0 -- -- 72
2019-10-10 13:00:00 23.7 24 Nordeste 39 Nordeste 0 -- -- 73
2019-10-10 12:00:00 23.7 24 Nordeste 39 Nordeste 0 -- -- 74
2019-10-10 11:00:00 23.7 21 Nordeste 31 Nordeste 0 -- -- 73
2019-10-10 10:00:00 22.5 19 Nordeste 29 Nordeste 0 -- -- 75
2019-10-10 09:00:00 21.4 19 Nordeste 26 Nordeste 0 -- -- 73
2019-10-10 08:00:00 20.7 14 Nordeste 22 Nordeste 0 -- -- 69
2019-10-10 07:00:00 20.7 14 Nordeste 23 Norte 0 -- -- 79
2019-10-10 06:00:00 20.5 18 Nordeste 24 Nordeste 0 -- -- 77
2019-10-10 05:00:00 20.2 14 Nordeste 19 Nordeste 0 -- -- 87
2019-10-10 04:00:00 20.2 10 Nordeste 17 Nordeste 0 -- -- 86
2019-10-10 03:00:00 19.4 8 Nordeste 10 Nordeste 0 -- -- 81
2019-10-10 02:00:00 19.3 5 Norte 6 Norte 0 -- -- 86
2019-10-10 01:00:00 19.7 0 Calma 3 Norte 0 -- -- 86
2019-10-10 00:00:00 20.3 0 Calma -- -- 0 -- -- 87
2019-10-09 23:00:00 20.5 0 Calma -- -- 0 -- -- 86
2019-10-09 22:00:00 20.8 0 Calma 5 Oeste 0 -- -- 87
2019-10-09 21:00:00 21.2 4 Oeste 6 Oeste 0 -- -- 87
2019-10-09 20:00:00 22.1 4 Oeste 5 Oeste 0 -- -- 84
2019-10-09 19:00:00 24 3 Sudoeste 5 Sudoeste 0 -- -- 79
2019-10-09 18:00:00 24.5 3 Sudoeste 6 Sudeste 0 -- -- 76
2019-10-09 17:00:00 23.8 5 Sudeste 12 Este 0 -- -- 77
2019-10-09 16:00:00 22.4 12 Este 17 Este 0 -- -- 81
2019-10-09 15:00:00 23.2 15 Este 22 Este 0 -- -- 77
2019-10-09 14:00:00 22.9 19 Este 21 Este 0 -- -- 77
2019-10-09 13:00:00 23 16 Este 19 Este 0 -- -- 74
2019-10-09 12:00:00 22.9 18 Este 24 Este 0 -- -- 71
2019-10-09 11:00:00 22.7 21 Este 24 Este 0 -- -- 70
2019-10-09 10:00:00 23.2 14 Nordeste 18 Nordeste 0 -- -- 56
2019-10-09 09:00:00 22.2 2 Nordeste 10 Nordeste 0 -- -- 58
2019-10-09 08:00:00 20.4 7 Nordeste 14 Norte 0 -- -- 55
2019-10-09 07:00:00 21 10 Norte 15 Nordeste 0 -- -- 51
2019-10-09 06:00:00 21.2 10 Nordeste 15 Nordeste 0 -- -- 49
2019-10-09 05:00:00 19.5 2 Nordeste 9 Nordeste 0 -- -- 60
2019-10-09 04:00:00 20.9 8 Nordeste 12 Nordeste 0 -- -- 59
2019-10-09 03:00:00 21.3 8 Nordeste 12 Nordeste 0 -- -- 61
2019-10-09 02:00:00 21.4 9 Norte 12 Norte 0 -- -- 60
2019-10-09 01:00:00 21.5 6 Nordeste 14 Nordeste 0 -- -- 65
2019-10-09 00:00:00 21.8 8 Nordeste 14 Nordeste 0 -- -- 63
2019-10-08 23:00:00 22 8 Nordeste 13 Nordeste 0 -- -- 65
2019-10-08 22:00:00 22.5 8 Nordeste 14 Nordeste 0 -- -- 65
2019-10-08 21:00:00 22.8 9 Nordeste 20 Nordeste 0 -- -- 65
2019-10-08 20:00:00 23.4 13 Nordeste 25 Nordeste 0 -- -- 64
2019-10-08 19:00:00 24.4 18 Nordeste 32 Nordeste 0 -- -- 63
2019-10-08 18:00:00 24.2 23 Nordeste 32 Nordeste 0 -- -- 66
2019-10-08 17:00:00 24 22 Este 33 Este 0 -- -- 68
2019-10-08 16:00:00 23.4 19 Este 26 Este 0 -- -- 76
2019-10-08 15:00:00 23.7 19 Este 29 Nordeste 0 -- -- 75
2019-10-08 14:00:00 23.8 23 Este 35 Nordeste 0 -- -- 71
2019-10-08 13:00:00 24.2 26 Nordeste 40 Nordeste 0 -- -- 67
2019-10-08 12:00:00 24.4 31 Nordeste 44 Nordeste 0 -- -- 66
2019-10-08 11:00:00 24 25 Nordeste 37 Nordeste 0 -- -- 71
2019-10-08 10:00:00 22.8 24 Nordeste 35 Nordeste 0 -- -- 77
2019-10-08 09:00:00 21.9 14 Nordeste 27 Nordeste 0 -- -- 80
2019-10-08 08:00:00 21.4 15 Nordeste 23 Nordeste 0 -- -- 84
2019-10-08 07:00:00 21.4 14 Nordeste 20 Nordeste 0 -- -- 83
2019-10-08 06:00:00 21.4 13 Nordeste 23 Nordeste 0 -- -- 80
2019-10-08 05:00:00 21.6 19 Nordeste 31 Nordeste 0 -- -- 78
2019-10-08 04:00:00 21.9 19 Nordeste 31 Nordeste 0 -- -- 72
2019-10-08 03:00:00 22.2 26 Nordeste 34 Nordeste 0 -- -- 71
2019-10-08 02:00:00 21.2 14 Nordeste 18 Nordeste 0 -- -- 81
2019-10-08 01:00:00 20.1 6 Nordeste 8 Nordeste 0 -- -- 87
2019-10-08 00:00:00 20.8 0 Calma 18 Sudeste 0 -- -- 87
2019-10-07 23:00:00 21.3 15 Sudeste 21 Este 0 -- -- 85
2019-10-07 22:00:00 21.8 16 Este 19 Nordeste 0 -- -- 79
2019-10-07 21:00:00 21.2 14 Este 17 Este 0 -- -- 85
2019-10-07 20:00:00 21.7 15 Este 17 Nordeste 0 -- -- 85
2019-10-07 19:00:00 23.1 9 Este 12 Sudoeste 0 -- -- 80
2019-10-07 18:00:00 23.2 9 Oeste 12 Sudoeste 0 -- -- 78
2019-10-07 17:00:00 23.2 10 Sudoeste 15 Oeste 0 -- -- 81
2019-10-07 16:00:00 22.2 13 Oeste 15 Oeste 0 -- -- 82
2019-10-07 15:00:00 22.4 7 Sudoeste 9 Sudoeste 0 -- -- 85
2019-10-07 14:00:00 23.5 4 Sur 6 Sur 0 -- -- 80
2019-10-07 13:00:00 23.3 5 Sudeste 7 Sur 0 -- -- 78
2019-10-07 12:00:00 23.3 5 Sudeste 7 Este 0 -- -- 77
2019-10-07 11:00:00 24.9 2 Este 4 Este 0 -- -- 68
2019-10-07 10:00:00 22.5 2 Este 5 Nordeste 0 -- -- 72
2019-10-07 09:00:00 19.3 4 Nordeste 9 Norte 0 -- -- 83
2019-10-07 08:00:00 18.3 2 Nordeste 9 Este 0 -- -- 83
2019-10-07 07:00:00 18.6 5 Nordeste 10 Oeste 0 -- -- 78
2019-10-07 06:00:00 19.2 7 Oeste 12 Oeste 0 -- -- 74
2019-10-07 05:00:00 18 2 Sudoeste 9 Sudoeste 0 -- -- 85
2019-10-07 04:00:00 18.3 4 Este 8 Nordeste 0 -- -- 88
2019-10-07 03:00:00 18.9 2 Oeste 10 Oeste 0 -- -- 88
2019-10-07 02:00:00 19.1 4 Oeste 8 Oeste 0 -- -- 87
2019-10-07 01:00:00 19 0 Calma 3 Noroeste 0 -- -- 87
2019-10-07 00:00:00 19.5 3 Nordeste 21 Nordeste 0 -- -- 85
2019-10-06 23:00:00 20.8 16 Nordeste 20 Este 0 -- -- 86
2019-10-06 22:00:00 20.7 15 Este 18 Este 0 -- -- 90
2019-10-06 21:00:00 20.9 5 Nordeste 16 Oeste 0 -- -- 89
2019-10-06 20:00:00 20.9 14 Oeste 20 Oeste 0 -- -- 87
2019-10-06 19:00:00 21.6 15 Oeste 18 Oeste 0 -- -- 85
2019-10-06 18:00:00 21.5 16 Oeste 18 Oeste 0 -- -- 85
2019-10-06 17:00:00 20.9 14 Oeste 18 Oeste 0 -- -- 87
2019-10-06 16:00:00 19.9 14 Oeste 16 Oeste 0 -- -- 93
2019-10-06 15:00:00 19.1 12 Oeste 15 Oeste 0 -- -- 95
2019-10-06 14:00:00 19.3 12 Sudoeste 15 Sudoeste 0 -- -- 93
2019-10-06 13:00:00 19.2 7 Sudoeste 12 Oeste 0 -- -- 93
2019-10-06 12:00:00 19.1 12 Oeste 15 Sudoeste 0 -- -- 94
2019-10-06 11:00:00 19.6 12 Sudoeste 14 Oeste 0 -- -- 88
2019-10-06 10:00:00 20.5 5 Nordeste 13 Nordeste 0 -- -- 86
2019-10-06 09:00:00 19.1 3 Nordeste 9 Oeste 0 -- -- 85
2019-10-06 08:00:00 18.3 7 Oeste 22 Nordeste 0 -- -- 86
2019-10-06 07:00:00 19.4 18 Este 22 Este 0 -- -- 88
2019-10-06 06:00:00 19.1 7 Nordeste 13 Nordeste 0 -- -- 86
2019-10-06 05:00:00 18.4 2 Nordeste 13 Este 0 -- -- 86
2019-10-06 04:00:00 19 8 Nordeste 15 Nordeste 0 -- -- 86
2019-10-06 03:00:00 18.8 5 Noroeste 10 Sudoeste 0 -- -- 87
2019-10-06 02:00:00 18.7 8 Oeste 12 Oeste 0 -- -- 81
2019-10-06 01:00:00 19 10 Oeste 14 Oeste 0 -- -- 86
2019-10-06 00:00:00 19.6 5 Oeste 9 Sudoeste 0 -- -- 85
2019-10-05 23:00:00 20 2 Oeste 14 Oeste 0 -- -- 82
2019-10-05 22:00:00 19.9 9 Oeste 14 Oeste 0 -- -- 86
2019-10-05 21:00:00 20.3 10 Oeste 14 Sudoeste 0 -- -- 84
2019-10-05 20:00:00 21.3 9 Oeste 19 Oeste 0 -- -- 81
2019-10-05 19:00:00 21.9 15 Oeste 18 Oeste 0 -- -- 79
2019-10-05 18:00:00 21.4 9 Sudoeste 15 Oeste 0 -- -- 83
2019-10-05 17:00:00 21.6 11 Oeste 14 Oeste 0 -- -- 80
2019-10-05 16:00:00 22 4 Sudoeste 10 Sudoeste 0 -- -- 81
2019-10-05 15:00:00 22.2 6 Sudoeste 10 Sudoeste 0 -- -- 79
2019-10-05 14:00:00 22.9 2 Sur 5 Sudoeste 0 -- -- 74
2019-10-05 13:00:00 21.7 3 Sudoeste 9 Sudoeste 0 -- -- 76
2019-10-05 12:00:00 21.3 4 Sudoeste 6 Sudoeste 0 -- -- 78
2019-10-05 11:00:00 22.3 3 Sur 5 Sur 0 -- -- 72
2019-10-05 10:00:00 19.8 5 Oeste 7 Oeste 0 -- -- 73
2019-10-05 09:00:00 19.6 0 Calma 3 Sur 0 -- -- 83
2019-10-05 08:00:00 17.7 0 Calma 10 Noroeste 0 -- -- 87
2019-10-05 07:00:00 18 6 Oeste 8 Oeste 0 -- -- 85
2019-10-05 06:00:00 18.5 0 Calma 6 Noroeste 0 -- -- 80
2019-10-05 05:00:00 17.4 4 Sudoeste 4 Sudoeste 0 -- -- 79
2019-10-05 04:00:00 17.8 0 Calma 3 Nordeste 0 -- -- 84
2019-10-05 03:00:00 18.7 2 Noroeste 5 Norte 0 -- -- 83
2019-10-05 02:00:00 18.5 0 Calma 4 Oeste 0 -- -- 81
2019-10-05 01:00:00 18.7 2 Oeste 6 Sudoeste 0 -- -- 81
2019-10-05 00:00:00 19.2 3 Nordeste 7 Nordeste 0 -- -- 82
2019-10-04 23:00:00 19.9 0 Calma 5 Noroeste 0 -- -- 82
2019-10-04 22:00:00 20.7 0 Calma 5 Sudoeste 0 -- -- 76
2019-10-04 21:00:00 20.4 4 Oeste 7 Sudoeste 0 -- -- 69
2019-10-04 20:00:00 21.1 6 Sudoeste 10 Sudoeste 0 -- -- 74
2019-10-04 19:00:00 22 9 Sudoeste 12 Oeste 0 -- -- 76
2019-10-04 18:00:00 21.6 11 Oeste 12 Oeste 0 -- -- 73
2019-10-04 17:00:00 22.1 7 Sudoeste 9 Oeste 0 -- -- 79
2019-10-04 16:00:00 21.6 10 Sudoeste 12 Oeste 0 -- -- 81
2019-10-04 15:00:00 22.4 6 Sudoeste 9 Sudoeste 0 -- -- 78
2019-10-04 14:00:00 23.4 3 Sudoeste 6 Sur 0 -- -- 64
2019-10-04 13:00:00 22.5 5 Sur 6 Sur 0 -- -- 66
2019-10-04 12:00:00 22.7 5 Sudoeste 6 Sudoeste 0 -- -- 67
2019-10-04 11:00:00 21.2 8 Sudoeste 11 Oeste 0 -- -- 71
2019-10-04 10:00:00 21.1 8 Oeste 11 Oeste 0 -- -- 70
2019-10-04 09:00:00 19.8 0 Calma 4 Nordeste 0 -- -- 76
2019-10-04 08:00:00 18.1 3 Nordeste 6 Norte 0 -- -- 79
2019-10-04 07:00:00 18.4 0 Calma 9 Este 0 -- -- 81
2019-10-04 06:00:00 20.2 4 Sudeste 24 Este 0 -- -- 73
2019-10-04 05:00:00 20.8 13 Nordeste 21 Este 0 -- -- 64
2019-10-04 04:00:00 18.8 10 Oeste 14 Noroeste 0 -- -- 79
2019-10-04 03:00:00 18.9 5 Oeste 14 Sudoeste 0 -- -- 83
2019-10-04 02:00:00 18.9 9 Oeste 15 Oeste 0 -- -- 80
2019-10-04 01:00:00 20.5 10 Sudoeste 14 Sudoeste 0 -- -- 81
2019-10-04 00:00:00 18.9 4 Noroeste 9 Oeste 0 -- -- 76
2019-10-03 23:00:00 20.2 6 Este 9 Sudeste 0 -- -- 81
2019-10-03 22:00:00 20.2 4 Sudoeste 9 Sudoeste 0 -- -- 79
2019-10-03 21:00:00 20.9 6 Oeste 9 Oeste 0 -- -- 74
2019-10-03 20:00:00 21.8 9 Sudoeste 13 Sudoeste 0 -- -- 72
2019-10-03 19:00:00 23.4 4 Sudoeste 12 Sudoeste 0 -- -- 70
2019-10-03 18:00:00 22.5 9 Oeste 17 Oeste 0 -- -- 74
2019-10-03 17:00:00 22.4 14 Sudoeste 21 Oeste 0 -- -- 75
2019-10-03 16:00:00 22.6 14 Oeste 18 Oeste 0 -- -- 71
2019-10-03 15:00:00 22.1 14 Oeste 16 Oeste 0 -- -- 73
2019-10-03 14:00:00 21.2 8 Oeste 12 Sudoeste 0 -- -- 79
2019-10-03 13:00:00 21 10 Sudoeste 13 Oeste 0 -- -- 81
2019-10-03 12:00:00 20.4 11 Oeste 17 Sudoeste 0 -- -- 78
2019-10-03 11:00:00 20.1 12 Sudoeste 15 Sudoeste 0 -- -- 83
2019-10-03 10:00:00 20.2 5 Oeste 12 Oeste 0 -- -- 77
2019-10-03 09:00:00 18.6 10 Oeste 11 Oeste 0 -- -- 71
2019-10-03 08:00:00 17.2 0 Calma 6 Sudoeste 0 -- -- 80
2019-10-03 07:00:00 17.3 0 Calma 4 Nordeste 0 -- -- 84
2019-10-03 06:00:00 17.5 3 Nordeste 5 Nordeste 0 -- -- 84
2019-10-03 05:00:00 18 2 Oeste 8 Noroeste 0 -- -- 84
2019-10-03 04:00:00 18.1 0 Calma 5 Sur 0 -- -- 85
2019-10-03 03:00:00 18.6 4 Noroeste 6 Oeste 0 -- -- 83
2019-10-03 02:00:00 19.7 0 Calma 10 Este 0 -- -- 81
2019-10-03 01:00:00 18.3 4 Norte 8 Sudoeste 0 -- -- 69
2019-10-03 00:00:00 18.6 0 Calma 6 Norte 0 -- -- 78
2019-10-02 23:00:00 19.4 2 Oeste 10 Sudoeste 0 -- -- 79
2019-10-02 22:00:00 20.5 6 Oeste 23 Sudoeste 0 -- -- 75
2019-10-02 21:00:00 21.6 16 Sudoeste 31 Oeste 0 -- -- 72
2019-10-02 20:00:00 22.8 23 Oeste 38 Oeste 0 -- -- 57
2019-10-02 19:00:00 23.5 26 Oeste 45 Oeste 0 -- -- 53
2019-10-02 18:00:00 23.9 17 Sudoeste 36 Sudoeste 0 -- -- 51
2019-10-02 17:00:00 24.3 19 Oeste 39 Oeste 0 -- -- 57
2019-10-02 16:00:00 23.5 28 Oeste 38 Oeste 0 -- -- 61
2019-10-02 15:00:00 23.3 16 Oeste 25 Oeste 0 -- -- 67
2019-10-02 14:00:00 22.3 11 Oeste 21 Oeste 0 -- -- 76
2019-10-02 13:00:00 21.9 7 Oeste 9 Oeste 0 -- -- 76
2019-10-02 12:00:00 21.4 9 Oeste 16 Sudoeste 0 -- -- 79
2019-10-02 11:00:00 20.7 14 Oeste 19 Oeste 0 -- -- 80
2019-10-02 10:00:00 21 9 Sudoeste 13 Sudoeste 0 -- -- 81
2019-10-02 09:00:00 20 6 Noroeste 13 Oeste 0 -- -- 80
2019-10-02 08:00:00 19.2 2 Norte 9 Nordeste 0 -- -- 77
2019-10-02 07:00:00 19.8 3 Nordeste 10 Nordeste 0 -- -- 77
2019-10-02 06:00:00 19.2 0 Calma 6 Sudeste 0 -- -- 80
2019-10-02 05:00:00 19.7 3 Noroeste 10 Oeste 0 -- -- 79
2019-10-02 04:00:00 19.9 0 Calma 13 Sudoeste 0 -- -- 82
2019-10-02 03:00:00 21.1 8 Oeste 13 Oeste 0 -- -- 76
2019-10-02 02:00:00 21.8 4 Noroeste 14 Sur 0 -- -- 67
2019-10-02 01:00:00 22.1 8 Oeste 15 Oeste 0 -- -- 69
2019-10-02 00:00:00 22.4 10 Oeste 25 Oeste 0 -- -- 67
2019-10-01 23:00:00 22.3 9 Oeste 23 Oeste 0 -- -- 75
2019-10-01 22:00:00 22 10 Oeste 22 Oeste 0 -- -- 77
2019-10-01 21:00:00 22.8 9 Oeste 33 Sur 0 -- -- 76
2019-10-01 20:00:00 23.5 9 Sudeste 29 Oeste 0 -- -- 72
2019-10-01 19:00:00 22.7 16 Oeste 25 Sudoeste 0 -- -- 79
2019-10-01 18:00:00 22.7 22 Sudoeste 31 Oeste 0 -- -- 78
2019-10-01 17:00:00 23.4 22 Oeste 31 Oeste 0 -- -- 73
2019-10-01 16:00:00 24 19 Oeste 27 Sudoeste 0 -- -- 67
2019-10-01 15:00:00 24.5 6 Sudoeste 23 Sudoeste 0 -- -- 62
2019-10-01 14:00:00 23.4 11 Sudoeste 18 Sudoeste 0 -- -- 68
2019-10-01 13:00:00 22.4 12 Sudoeste 16 Sudoeste 0 -- -- 73
2019-10-01 12:00:00 21.6 12 Oeste 21 Oeste 0 -- -- 82
2019-10-01 11:00:00 21.1 17 Oeste 19 Oeste 0 -- -- 78
2019-10-01 10:00:00 21.4 11 Oeste 13 Oeste 0 -- -- 70
2019-10-01 09:00:00 20.4 8 Noroeste 13 Oeste 0 -- -- 71
2019-10-01 08:00:00 19.7 7 Noroeste 14 Noroeste 0 -- -- 69
2019-10-01 07:00:00 19.7 11 Noroeste 14 Noroeste 0 -- -- 69
2019-10-01 06:00:00 18.9 5 Nordeste 13 Nordeste 0 -- -- 73
2019-10-01 05:00:00 19.7 11 Nordeste 13 Nordeste 0 -- -- 70
2019-10-01 04:00:00 20.6 8 Este 10 Nordeste 0 -- -- 72
2019-10-01 03:00:00 19.9 5 Nordeste 8 Nordeste 0 -- -- 65
2019-10-01 02:00:00 20.3 2 Nordeste 8 Noroeste 0 -- -- 64
2019-10-01 01:00:00 23.1 7 Noroeste 12 Noroeste 0 -- -- 38
2019-10-01 00:00:00 21.3 4 Noroeste 15 Noroeste 0 -- -- 54
2019-09-30 23:00:00 23 9 Noroeste 16 Noroeste 0 -- -- 41
2019-09-30 22:00:00 21.9 11 Noroeste 17 Oeste 0 -- -- 52
2019-09-30 21:00:00 21.9 13 Noroeste 18 Oeste 0 -- -- 60
2019-09-30 20:00:00 22.5 16 Oeste 20 Oeste 0 -- -- 74
2019-09-30 19:00:00 22.2 15 Oeste 20 Oeste 0 -- -- 81
2019-09-30 18:00:00 22.7 18 Oeste 20 Oeste 0 -- -- 71
2019-09-30 17:00:00 22.3 9 Sudoeste 15 Oeste 0 -- -- 82
2019-09-30 16:00:00 21.9 14 Sudoeste 18 Sudoeste 0 -- -- 84
2019-09-30 15:00:00 22.4 9 Sudoeste 14 Sudoeste 0 -- -- 86
2019-09-30 14:00:00 22.3 9 Sudoeste 11 Sudoeste 0 -- -- 83
2019-09-30 13:00:00 23.3 5 Sudeste 12 Este 0 -- -- 77
2019-09-30 12:00:00 22.9 8 Este 9 Este 0 -- -- 80
2019-09-30 11:00:00 22.8 4 Este 11 Este 0 -- -- 80
2019-09-30 10:00:00 21.1 4 Nordeste 6 Este 0 -- -- 90
2019-09-30 09:00:00 19.9 3 Sudoeste 7 Noroeste 0 -- -- 93
2019-09-30 08:00:00 19.6 4 Noroeste 6 Noroeste 0 -- -- 92
2019-09-30 07:00:00 19.3 0 Calma 4 Nordeste 0 -- -- 91
2019-09-30 06:00:00 19.4 0 Calma 9 Nordeste 0 -- -- 90
2019-09-30 05:00:00 19.6 7 Nordeste 9 Nordeste 0 -- -- 90
2019-09-30 04:00:00 20.1 8 Nordeste 11 Noroeste 0 -- -- 88
2019-09-30 03:00:00 20.4 8 Noroeste 12 Oeste 0 -- -- 85
2019-09-30 02:00:00 20.2 9 Noroeste 12 Noroeste 0 -- -- 89
2019-09-30 01:00:00 20.3 8 Noroeste 10 Noroeste 0 -- -- 90
2019-09-30 00:00:00 20.5 7 Oeste 12 Oeste 0 -- -- 90
2019-09-29 23:00:00 20.6 9 Noroeste 13 Oeste 0 -- -- 89
2019-09-29 22:00:00 21.1 8 Oeste 10 Oeste 0 -- -- 89
2019-09-29 21:00:00 21.8 9 Oeste 13 Oeste 0 -- -- 89
2019-09-29 20:00:00 22.3 9 Oeste 10 Oeste 0 -- -- 88
2019-09-29 19:00:00 23.4 9 Oeste 11 Oeste 0 -- -- 84
2019-09-29 18:00:00 23.4 9 Oeste 11 Oeste 0 -- -- 82
2019-09-29 17:00:00 24.3 5 Sudoeste 5 Sudoeste 0 -- -- 78
2019-09-29 16:00:00 24 5 Este 12 Este 0 -- -- 79
2019-09-29 15:00:00 24.1 11 Este 14 Este 0 -- -- 78
2019-09-29 14:00:00 23.9 14 Este 15 Este 0 -- -- 77
2019-09-29 13:00:00 24 13 Este 14 Este 0 -- -- 75
2019-09-29 12:00:00 23.2 11 Este 14 Este 0 -- -- 79
2019-09-29 11:00:00 23 3 Sudoeste 9 Oeste 0 -- -- 75
2019-09-29 10:00:00 20.4 5 Oeste 9 Oeste 0 -- -- 78
2019-09-29 09:00:00 20.5 6 Noroeste 9 Noroeste 0 -- -- 73
2019-09-29 08:00:00 19.4 7 Noroeste 11 Oeste 0 -- -- 76
2019-09-29 07:00:00 19 3 Oeste 4 Oeste 0 -- -- 76
2019-09-29 06:00:00 18.8 0 Calma 4 Este 0 -- -- 79
2019-09-29 05:00:00 19 0 Calma 5 Oeste 0 -- -- 77
2019-09-29 04:00:00 19.3 3 Oeste 4 Oeste 0 -- -- 81
2019-09-29 03:00:00 19.7 0 Calma 9 Nordeste 0 -- -- 85
2019-09-29 02:00:00 20.9 6 Nordeste 14 Nordeste 0 -- -- 87
2019-09-29 01:00:00 21 9 Nordeste 13 Nordeste 0 -- -- 84
2019-09-29 00:00:00 20.5 7 Nordeste 9 Nordeste 0 -- -- 84
2019-09-28 23:00:00 21.1 3 Nordeste 4 Nordeste 0 -- -- 86
2019-09-28 22:00:00 21.4 3 Norte 4 Norte 0 -- -- 86
2019-09-28 21:00:00 22 0 Calma 5 Oeste 0 -- -- 86
2019-09-28 20:00:00 23 0 Calma 5 Este 0 -- -- 82
2019-09-28 19:00:00 23.6 5 Este 5 Este 0 -- -- 81
2019-09-28 18:00:00 23.6 5 Este 12 Este 0 -- -- 79
2019-09-28 17:00:00 22.7 11 Este 13 Este 0 -- -- 83
2019-09-28 16:00:00 22.9 9 Este 13 Este 0 -- -- 80
2019-09-28 15:00:00 23.2 9 Este 10 Este 0 -- -- 79
2019-09-28 14:00:00 22.7 5 Este 8 Este 0 -- -- 78
2019-09-28 13:00:00 23.5 4 Sudeste 6 Este 0 -- -- 76
2019-09-28 12:00:00 22.3 4 Sur 8 Sur 0 -- -- 80
2019-09-28 11:00:00 21.4 6 Sur 8 Sur 0 -- -- 84
2019-09-28 10:00:00 20.1 2 Sudeste 8 Oeste 0 -- -- 89
2019-09-28 09:00:00 19.7 6 Noroeste 13 Oeste 0 -- -- 91
2019-09-28 08:00:00 19.7 5 Oeste 10 Noroeste 0 -- -- 92
2019-09-28 07:00:00 19.7 5 Noroeste 8 Noroeste 0 -- -- 92
2019-09-28 06:00:00 19.3 2 Nordeste 6 Noroeste 0 -- -- 91
2019-09-28 05:00:00 19.3 2 Noroeste 6 Oeste 0 -- -- 92
2019-09-28 04:00:00 20.3 8 Nordeste 22 Nordeste 0 -- -- 92
2019-09-28 03:00:00 20.5 14 Nordeste 20 Nordeste 0 -- -- 91
2019-09-28 02:00:00 20.9 8 Nordeste 13 Este 0 -- -- 89
2019-09-28 01:00:00 20.4 0 Calma 9 Noroeste 0 -- -- 89
2019-09-28 00:00:00 20.6 6 Noroeste 11 Noroeste 0 -- -- 90
2019-09-27 23:00:00 21.2 10 Oeste 15 Oeste 0 -- -- 89
2019-09-27 22:00:00 21.6 11 Oeste 19 Oeste 0 -- -- 88
2019-09-27 21:00:00 21.8 16 Oeste 22 Oeste 0 -- -- 88
2019-09-27 20:00:00 22.4 19 Oeste 22 Oeste 0 -- -- 86
2019-09-27 19:00:00 23.6 10 Sudoeste 12 Sudoeste 0 -- -- 80
2019-09-27 18:00:00 24.9 4 Sudoeste 6 Sudoeste 0 -- -- 73
2019-09-27 17:00:00 24.5 4 Sur 6 Sur 0 -- -- 74
2019-09-27 16:00:00 24 5 Sur 8 Sudeste 0 -- -- 76
2019-09-27 15:00:00 23.7 6 Sur 9 Sur 0 -- -- 77
2019-09-27 14:00:00 23.1 5 Sur 8 Sudoeste 0 -- -- 80
2019-09-27 13:00:00 22.6 6 Sudoeste 8 Sudoeste 0 -- -- 82
2019-09-27 12:00:00 22.7 5 Sudoeste 12 Sudoeste 0 -- -- 82
2019-09-27 11:00:00 21.5 11 Oeste 15 Oeste 0 -- -- 86
2019-09-27 10:00:00 20.9 13 Oeste 18 Oeste 0 -- -- 88
2019-09-27 09:00:00 20.4 6 Oeste 7 Oeste 0 -- -- 81
2019-09-27 08:00:00 19.6 5 Oeste 8 Oeste 0 -- -- 83
2019-09-27 07:00:00 20 6 Oeste 10 Noroeste 0 -- -- 83
2019-09-27 06:00:00 19.8 5 Noroeste 9 Noroeste 0 -- -- 83
2019-09-27 05:00:00 20.1 2 Nordeste 8 Norte 0 -- -- 81
2019-09-27 04:00:00 20.1 2 Norte 7 Nordeste 0 -- -- 83
2019-09-27 03:00:00 20.5 2 Nordeste 9 Nordeste 0 -- -- 83
2019-09-27 02:00:00 20.9 2 Nordeste 9 Nordeste 0 -- -- 84
2019-09-27 01:00:00 21.1 4 Nordeste 6 Nordeste 0 -- -- 83
2019-09-27 00:00:00 21 3 Este 9 Nordeste 0 -- -- 84
2019-09-26 23:00:00 21.5 6 Nordeste 10 Nordeste 0 -- -- 88
2019-09-26 22:00:00 21.9 6 Este 15 Este 0 -- -- 88
2019-09-26 21:00:00 22.3 15 Este 18 Este 0 -- -- 87
2019-09-26 20:00:00 23.2 16 Este 21 Este 0 -- -- 82
2019-09-26 19:00:00 24.1 19 Este 24 Este 0 -- -- 78
2019-09-26 18:00:00 23.9 21 Este 28 Este 0 -- -- 80
2019-09-26 17:00:00 23.7 27 Este 30 Este 0 -- -- 80
2019-09-26 16:00:00 24.2 27 Este 35 Este 0 -- -- 76
2019-09-26 15:00:00 24.1 29 Este 35 Este 0 -- -- 77
2019-09-26 14:00:00 23.9 29 Este 38 Este 0 -- -- 76
2019-09-26 13:00:00 23.9 31 Este 40 Este 0 -- -- 75
2019-09-26 12:00:00 23.1 33 Este 40 Este 0 -- -- 79
2019-09-26 11:00:00 22.5 29 Este 37 Este 0 -- -- 79
2019-09-26 10:00:00 24.3 24 Nordeste 33 Nordeste 0 -- -- 68
2019-09-26 09:00:00 23.5 24 Nordeste 32 Nordeste 0 -- -- 67
2019-09-26 08:00:00 21.7 9 Nordeste 16 Nordeste 0 -- -- 71
2019-09-26 07:00:00 21.9 14 Nordeste 30 Nordeste 0 -- -- 72
2019-09-26 06:00:00 21.6 19 Nordeste 24 Nordeste 0 -- -- 82
2019-09-26 05:00:00 21.6 17 Nordeste 22 Nordeste 0 -- -- 85
2019-09-26 04:00:00 21.7 10 Nordeste 17 Nordeste 0 -- -- 73
2019-09-26 03:00:00 20.5 7 Oeste 10 Oeste 0 -- -- 82
2019-09-26 02:00:00 21 9 Oeste 21 Sudoeste 0 -- -- 83
2019-09-26 01:00:00 22.3 10 Oeste 25 Noroeste 0 -- -- 78
2019-09-26 00:00:00 24.9 11 Oeste 23 Oeste 0 -- -- 60
2019-09-25 23:00:00 22.1 6 Sudoeste 19 Sudoeste 0 -- -- 75
2019-09-25 22:00:00 21.9 9 Sudoeste 10 Oeste 0 -- -- 81
2019-09-25 21:00:00 22.4 0 Calma 6 Sudoeste 0 -- -- 79
2019-09-25 20:00:00 23.5 5 Oeste 21 Sudoeste 0 -- -- 76
2019-09-25 19:00:00 24.1 15 Sudoeste 21 Sudoeste 0 -- -- 73
2019-09-25 18:00:00 25.9 4 Sudoeste 17 Sudoeste 0 -- -- 63
2019-09-25 17:00:00 24 14 Sudoeste 23 Sudoeste 0 -- -- 75
2019-09-25 16:00:00 23.7 10 Sudoeste 19 Oeste 0 -- -- 79
2019-09-25 15:00:00 23.4 10 Oeste 20 Oeste 0 -- -- 78
2019-09-25 14:00:00 23 15 Oeste 21 Oeste 0 -- -- 81
2019-09-25 13:00:00 23.7 11 Oeste 13 Oeste 0 -- -- 71
2019-09-25 12:00:00 23.8 5 Sudoeste 9 Sudoeste 0 -- -- 74
2019-09-25 11:00:00 23.6 9 Sur 14 Sur 0 -- -- 77
2019-09-25 10:00:00 23.7 4 Sudoeste 9 Sur 0 -- -- 72
2019-09-25 09:00:00 23.6 4 Norte 10 Noroeste 0 -- -- 64
2019-09-25 08:00:00 20.3 10 Oeste 14 Sudoeste 0 -- -- 79
2019-09-25 07:00:00 21.5 10 Oeste 17 Oeste 0 -- -- 80
2019-09-25 06:00:00 21.2 6 Oeste 16 Sudoeste 0 -- -- 74
2019-09-25 05:00:00 21 9 Oeste 12 Oeste 0 -- -- 72
2019-09-25 04:00:00 20.2 0 Calma 6 Oeste 0 -- -- 61
2019-09-25 03:00:00 20.4 0 Calma 8 Nordeste 0 -- -- 64
2019-09-25 02:00:00 20.5 3 Oeste 13 Noroeste 0 -- -- 71
2019-09-25 01:00:00 21 9 Oeste 12 Oeste 0 -- -- 71
2019-09-25 00:00:00 21 6 Oeste 12 Oeste 0 -- -- 72
2019-09-24 23:00:00 21.2 6 Oeste 11 Oeste 0 -- -- 73
2019-09-24 22:00:00 21.5 9 Oeste 14 Oeste 0 -- -- 72
2019-09-24 21:00:00 22.4 9 Oeste 20 Oeste 0 -- -- 59
2019-09-24 20:00:00 22.9 18 Oeste 25 Oeste 0 -- -- 68
2019-09-24 19:00:00 23.7 22 Oeste 24 Oeste 0 -- -- 66
2019-09-24 18:00:00 23.2 22 Oeste 23 Oeste 0 -- -- 75
2019-09-24 17:00:00 22.9 20 Oeste 23 Oeste 0 -- -- 80
2019-09-24 16:00:00 22.8 16 Oeste 18 Oeste 0 -- -- 79
2019-09-24 15:00:00 22.4 17 Oeste 19 Sudoeste 0 -- -- 79
2019-09-24 14:00:00 22.1 16 Oeste 18 Oeste 0 -- -- 82
2019-09-24 13:00:00 22.1 12 Sudoeste 16 Sudoeste 0 -- -- 82
2019-09-24 12:00:00 21.9 13 Oeste 16 Oeste 0 -- -- 78
2019-09-24 11:00:00 21.7 12 Oeste 14 Oeste 0 -- -- 69
2019-09-24 10:00:00 21.7 9 Oeste 12 Oeste 0 -- -- 66
2019-09-24 09:00:00 20.5 9 Noroeste 11 Oeste 0 -- -- 60
2019-09-24 08:00:00 18.3 2 Noroeste 5 Noroeste 0 -- -- 64
2019-09-24 07:00:00 18.1 0 Calma 5 Noroeste 0 -- -- 68
2019-09-24 06:00:00 18.4 3 Noroeste 4 Noroeste 0 -- -- 67
2019-09-24 05:00:00 18.5 0 Calma 5 Noroeste 0 -- -- 68
2019-09-24 04:00:00 18.8 0 Calma 5 Nordeste 0 -- -- 68
2019-09-24 03:00:00 19.2 2 Nordeste 5 Nordeste 0 -- -- 66
2019-09-24 02:00:00 19.8 5 Nordeste 7 Nordeste 0 -- -- 69
2019-09-24 01:00:00 20.1 5 Nordeste 7 Nordeste 0 -- -- 67
2019-09-24 00:00:00 20.5 0 Calma 4 Nordeste 0 -- -- 62
2019-09-23 23:00:00 21.1 4 Nordeste 6 Noroeste 0 -- -- 63
2019-09-23 22:00:00 22.1 0 Calma 9 Oeste 0 -- -- 60
2019-09-23 21:00:00 22.2 7 Oeste 11 Oeste 0 -- -- 58
2019-09-23 20:00:00 23.2 10 Oeste 13 Oeste 0 -- -- 61
2019-09-23 19:00:00 24.1 7 Oeste 10 Oeste 0 -- -- 67
2019-09-23 18:00:00 23.9 8 Oeste 10 Oeste 0 -- -- 64
2019-09-23 17:00:00 24.3 7 Sudoeste 8 Oeste 0 -- -- 65
2019-09-23 16:00:00 23.6 8 Oeste 9 Oeste 0 -- -- 67
2019-09-23 15:00:00 23.3 7 Sudoeste 10 Oeste 0 -- -- 65
2019-09-23 14:00:00 23.2 7 Sudoeste 9 Oeste 0 -- -- 71
2019-09-23 13:00:00 22.8 8 Oeste 12 Sudoeste 0 -- -- 69
2019-09-23 12:00:00 22.7 9 Sudoeste 13 Sudoeste 0 -- -- 73
2019-09-23 11:00:00 22.4 8 Sudoeste 11 Sudoeste 0 -- -- 77
2019-09-23 10:00:00 22 8 Sudoeste 18 Noroeste 0 -- -- 72
2019-09-23 09:00:00 22.5 10 Noroeste 21 Noroeste 0 -- -- 53
2019-09-23 08:00:00 20 3 Nordeste 7 Oeste 0 -- -- 78
2019-09-23 07:00:00 21.3 6 Sudoeste 15 Sur 0 -- -- 68
2019-09-23 06:00:00 21.4 6 Oeste 17 Noroeste 0 -- -- 60
2019-09-23 05:00:00 22.9 15 Noroeste 28 Noroeste 0 -- -- 46
2019-09-23 04:00:00 19.7 3 Norte 8 Nordeste 0 -- -- 69
2019-09-23 03:00:00 20 4 Noroeste 8 Norte 0 -- -- 75
2019-09-23 02:00:00 19.7 3 Oeste 6 Noroeste 0 -- -- 76
2019-09-23 01:00:00 20.6 0 Calma 6 Nordeste 0 -- -- 78
2019-09-23 00:00:00 21.1 0 Calma 13 Sudoeste 0 -- -- 84
2019-09-22 23:00:00 21.8 9 Oeste 19 Sudoeste 0 -- -- 82
2019-09-22 22:00:00 22.7 13 Sudoeste 20 Sudoeste 0 -- -- 80
2019-09-22 21:00:00 22.5 16 Sudoeste 29 Oeste 0 -- -- 79
2019-09-22 20:00:00 22.9 12 Noroeste 35 Sudoeste 0 -- -- 70
2019-09-22 19:00:00 23.1 28 Sudoeste 39 Sudoeste 0 -- -- 71
2019-09-22 18:00:00 24.5 13 Oeste 37 Sudoeste 0 -- -- 67
2019-09-22 17:00:00 23.1 29 Sudoeste 41 Sudoeste 0 -- -- 77
2019-09-22 16:00:00 23.1 29 Sudoeste 42 Sudoeste 0 -- -- 80
2019-09-22 15:00:00 22.8 36 Sudoeste 43 Sudoeste 0 -- -- 83
2019-09-22 14:00:00 22.8 32 Sudoeste 39 Sudoeste 0 -- -- 83
2019-09-22 13:00:00 22.8 27 Sudoeste 40 Sudoeste 0 -- -- 83
2019-09-22 12:00:00 22.6 30 Sudoeste 35 Sudoeste 0 -- -- 83
2019-09-22 11:00:00 22.4 27 Sudoeste 39 Sudoeste 0 -- -- 84
2019-09-22 10:00:00 22.4 20 Oeste 29 Sudoeste 0 -- -- 83
2019-09-22 09:00:00 21.7 11 Oeste 24 Oeste 0 -- -- 78
2019-09-22 08:00:00 21 11 Oeste 21 Oeste 0 -- -- 81
2019-09-22 07:00:00 20.6 10 Oeste 15 Oeste 0 -- -- 81
2019-09-22 06:00:00 20.5 5 Noroeste 9 Noroeste 0 -- -- 79
2019-09-22 05:00:00 20.7 6 Noroeste 13 Oeste 0 -- -- 80
2019-09-22 04:00:00 21.1 4 Oeste 9 Oeste 0 -- -- 83
2019-09-22 03:00:00 21.3 5 Oeste 9 Noroeste 0 -- -- 82
2019-09-22 02:00:00 21.7 8 Noroeste 14 Oeste 0 -- -- 78
2019-09-22 01:00:00 21.6 8 Oeste 12 Oeste 0 -- -- 75
2019-09-22 00:00:00 21.7 5 Oeste 6 Oeste 0 -- -- 73
2019-09-21 23:00:00 22.3 0 Calma 11 Noroeste 0 -- -- 73
2019-09-21 22:00:00 22.3 8 Noroeste 15 Oeste 0 -- -- 76
2019-09-21 21:00:00 22.6 14 Oeste 17 Oeste 0 -- -- 81
2019-09-21 20:00:00 22.8 12 Oeste 14 Sudoeste 0 -- -- 76
2019-09-21 19:00:00 23.1 8 Oeste 13 Sudoeste 0 -- -- 73
2019-09-21 18:00:00 23.4 12 Sudoeste 13 Oeste 0 -- -- 78
2019-09-21 17:00:00 23.5 10 Sudoeste 12 Sudoeste 0 -- -- 79
2019-09-21 16:00:00 24.1 6 Sudoeste 12 Sudoeste 0 -- -- 78
2019-09-21 15:00:00 23.4 12 Sudoeste 17 Sudoeste 0 -- -- 84
2019-09-21 14:00:00 23.2 13 Sudoeste 15 Oeste 0 -- -- 87
2019-09-21 13:00:00 22.9 12 Sudoeste 19 Oeste 0 -- -- 89
2019-09-21 12:00:00 22.7 9 Sudoeste 14 Sudoeste 0 -- -- 90
2019-09-21 11:00:00 22.6 8 Sudoeste 9 Sudoeste 0 -- -- 91
2019-09-21 10:00:00 22.8 3 Sudoeste 5 Sudoeste 0 -- -- 89
2019-09-21 09:00:00 22.1 3 Oeste 6 Noroeste 0 -- -- 91
2019-09-21 08:00:00 22 0 Calma 6 Oeste 0 -- -- 90
2019-09-21 07:00:00 21.8 3 Noroeste 9 Oeste 0 -- -- 90
2019-09-21 06:00:00 22 2 Oeste 9 Oeste 0 -- -- 89
2019-09-21 05:00:00 22.2 2 Noroeste 7 Norte 0 -- -- 89
2019-09-21 04:00:00 22.2 0 Calma 5 Noroeste 0 -- -- 88
2019-09-21 03:00:00 22.6 3 Noroeste 7 Nordeste 0 -- -- 87
2019-09-21 02:00:00 23.4 3 Nordeste 8 Nordeste 0 -- -- 85
2019-09-21 01:00:00 23.4 5 Nordeste 9 Nordeste 0 -- -- 84
2019-09-21 00:00:00 23.5 2 Nordeste 8 Nordeste 0 -- -- 84
2019-09-20 23:00:00 23.5 4 Norte 10 Nordeste 0 -- -- 84
2019-09-20 22:00:00 23.3 9 Nordeste 10 Nordeste 0 -- -- 85
2019-09-20 21:00:00 23.7 4 Sudeste 6 Este 0 -- -- 83
2019-09-20 20:00:00 24.1 2 Sudeste 11 Este 0 -- -- 80
2019-09-20 19:00:00 24.2 8 Nordeste 16 Nordeste 0 -- -- 81
2019-09-20 18:00:00 24.3 9 Nordeste 17 Este 0 -- -- 81
2019-09-20 17:00:00 24.1 15 Este 22 Nordeste 0 -- -- 82
2019-09-20 16:00:00 24.1 18 Nordeste 26 Nordeste 0 -- -- 82
2019-09-20 15:00:00 24.6 21 Nordeste 32 Nordeste 0 -- -- 81
2019-09-20 14:00:00 24.1 26 Nordeste 32 Nordeste 0 -- -- 83
2019-09-20 13:00:00 24.7 27 Nordeste 34 Nordeste 0 -- -- 81
2019-09-20 12:00:00 24.4 26 Nordeste 34 Este 0 -- -- 82
2019-09-20 11:00:00 23.7 14 Este 21 Este 0 -- -- 84
2019-09-20 10:00:00 24.1 8 Nordeste 13 Nordeste 0 -- -- 80
2019-09-20 09:00:00 23 7 Nordeste 10 Norte 0 -- -- 85
2019-09-20 08:00:00 22.8 7 Nordeste 14 Nordeste 0 -- -- 84
2019-09-20 07:00:00 22.7 7 Nordeste 14 Norte 0 -- -- 85
2019-09-20 06:00:00 22.5 6 Norte 16 Nordeste 0 -- -- 84
2019-09-20 05:00:00 22.5 9 Nordeste 21 Nordeste 0 -- -- 86
2019-09-20 04:00:00 22.5 16 Nordeste 21 Nordeste 0 -- -- 85
2019-09-20 03:00:00 22.5 10 Nordeste 18 Nordeste 0 -- -- 84
2019-09-20 02:00:00 22.5 9 Nordeste 15 Nordeste 0 -- -- 85
2019-09-20 01:00:00 22.6 9 Nordeste 14 Nordeste 0 -- -- 84
2019-09-20 00:00:00 22.6 11 Nordeste 19 Nordeste 0 -- -- 86
2019-09-19 23:00:00 22.7 15 Nordeste 21 Nordeste 0 -- -- 86
2019-09-19 22:00:00 22.8 14 Nordeste 19 Nordeste 0 -- -- 86
2019-09-19 21:00:00 22.9 7 Este 8 Este 0 -- -- 88
2019-09-19 20:00:00 24.2 0 Calma 7 Este 0 -- -- 82
2019-09-19 19:00:00 24 8 Este 15 Este 0 -- -- 83
2019-09-19 18:00:00 24.1 13 Este 17 Este 0 -- -- 82
2019-09-19 17:00:00 24.5 16 Este 19 Este 0 -- -- 80
2019-09-19 16:00:00 24.4 15 Este 17 Este 0 -- -- 80
2019-09-19 15:00:00 23.8 15 Este 17 Este 0 -- -- 82
2019-09-19 14:00:00 24.4 8 Sudeste 9 Este 0 -- -- 79
2019-09-19 13:00:00 24.7 6 Sur 10 Sudoeste 0 -- -- 77
2019-09-19 12:00:00 23.4 6 Sudoeste 10 Sudoeste 0 -- -- 82
2019-09-19 11:00:00 23 9 Sudoeste 14 Sudoeste 0 -- -- 83
2019-09-19 10:00:00 22.8 9 Sudoeste 13 Oeste 0 -- -- 83
2019-09-19 09:00:00 22 5 Noroeste 8 Oeste 0 -- -- 80
2019-09-19 08:00:00 20.7 0 Calma 5 Nordeste 0 -- -- 84
2019-09-19 07:00:00 21.7 6 Nordeste 13 Nordeste 0 -- -- 83
2019-09-19 06:00:00 21.6 0 Calma 14 Este 0 -- -- 83
2019-09-19 05:00:00 22.6 10 Nordeste 21 Nordeste 0 -- -- 79
2019-09-19 04:00:00 21.9 12 Nordeste 15 Nordeste 0 -- -- 83
2019-09-19 03:00:00 22.2 10 Nordeste 13 Nordeste 0 -- -- 85
2019-09-19 02:00:00 21.9 3 Noroeste 7 Oeste 0 -- -- 83
2019-09-19 01:00:00 22.3 0 Calma 4 Sudoeste 0 -- -- 84
2019-09-19 00:00:00 22.4 3 Norte 5 Norte 0 -- -- 83
2019-09-18 23:00:00 22.2 3 Oeste 5 Sudoeste 0 -- -- 83
2019-09-18 22:00:00 22.7 3 Noroeste 8 Oeste 0 -- -- 84
2019-09-18 21:00:00 23.1 8 Oeste 18 Oeste 0 -- -- 85
2019-09-18 20:00:00 23.5 16 Oeste 20 Oeste 0 -- -- 81
2019-09-18 19:00:00 23.9 17 Oeste 19 Oeste 0 -- -- 79
2019-09-18 18:00:00 24.1 14 Sudoeste 17 Sudoeste 0 -- -- 83
2019-09-18 17:00:00 24.2 14 Sudoeste 16 Sudoeste 0 -- -- 81
2019-09-18 16:00:00 23.8 15 Sudoeste 18 Sudoeste 0 -- -- 82
2019-09-18 15:00:00 23.4 14 Sudoeste 16 Sudoeste 0 -- -- 84
2019-09-18 14:00:00 23.9 10 Sur 12 Sudoeste 0 -- -- 82
2019-09-18 13:00:00 23.5 12 Sudoeste 15 Sudoeste 0 -- -- 84
2019-09-18 12:00:00 23.6 13 Sudoeste 14 Sudoeste 0 -- -- 79
2019-09-18 11:00:00 23.4 11 Sudoeste 15 Oeste 0 -- -- 80
2019-09-18 10:00:00 23.5 12 Oeste 15 Oeste 0 -- -- 78
2019-09-18 09:00:00 22.1 8 Noroeste 14 Oeste 0 -- -- 84
2019-09-18 08:00:00 21.2 7 Noroeste 11 Noroeste 0 -- -- 87
2019-09-18 07:00:00 21.3 6 Noroeste 9 Noroeste 0 -- -- 87
2019-09-18 06:00:00 21.6 5 Noroeste 10 Noroeste 0 -- -- 87
2019-09-18 05:00:00 21.6 6 Noroeste 9 Noroeste 0 -- -- 86
2019-09-18 04:00:00 21.5 8 Noroeste 9 Oeste 0 -- -- 85
2019-09-18 03:00:00 21.7 0 Calma 4 Sudoeste 0 -- -- 84
2019-09-18 02:00:00 22 0 Calma 5 Nordeste 0 -- -- 83
2019-09-18 01:00:00 22.4 3 Nordeste 4 Norte 0 -- -- 83
2019-09-18 00:00:00 22.7 0 Calma 4 Nordeste 0 -- -- 82
2019-09-17 23:00:00 23 3 Nordeste 6 Nordeste 0 -- -- 81
2019-09-17 22:00:00 23.5 0 Calma 4 Oeste 0 -- -- 79
2019-09-17 21:00:00 24 3 Oeste 4 Oeste 0 -- -- 78
2019-09-15 18:00:00 24.6 12 Sudoeste 15 Sudoeste 0 -- -- 86
2019-09-15 17:00:00 24.4 12 Sudoeste 13 Sudoeste 0 -- -- 86
2019-09-15 16:00:00 24.3 10 Sudoeste 12 Sudoeste 0 -- -- 86
2019-09-15 15:00:00 24.5 9 Sudoeste 12 Sudoeste 0 -- -- 86
2019-09-15 14:00:00 24.4 10 Sudoeste 12 Sudoeste 0 -- -- 86
2019-09-15 13:00:00 24.4 9 Oeste 15 Oeste 0 -- -- 86
2019-09-15 12:00:00 23.6 13 Oeste 16 Sudoeste 0 -- -- 89
2019-09-15 11:00:00 24.3 12 Oeste 14 Sudoeste 0 -- -- 85
2019-09-15 10:00:00 25.3 0 Calma 6 Nordeste 0 -- -- 78
2019-09-15 09:00:00 23.2 0 Calma 4 Nordeste 0 -- -- 90
2019-09-15 08:00:00 22.9 0 Calma 8 Nordeste 0 -- -- 91
2019-09-15 07:00:00 23 8 Nordeste 23 Este 0.2 -- -- 90
2019-09-15 06:00:00 23.3 21 Este 24 Este 0 -- -- 89
2019-09-15 05:00:00 23.5 20 Este 25 Este 0 -- -- 87
2019-09-15 04:00:00 23.5 10 Nordeste 18 Este 0 -- -- 86
2019-09-15 03:00:00 23.4 13 Nordeste 22 Este 0 -- -- 86
2019-09-15 02:00:00 23.5 13 Este 22 Este 0 -- -- 86
2019-09-15 01:00:00 23.6 13 Este 21 Este 0 -- -- 84
2019-09-15 00:00:00 23.7 12 Este 21 Este 0 -- -- 83